createdAt,value
2022-10-26T00:00:53.495Z,70.29
2022-10-26T00:03:19.954Z,69.80
2022-10-26T00:05:46.390Z,69.71
2022-10-26T00:08:12.968Z,70.05
2022-10-26T00:10:39.903Z,69.90
2022-10-26T00:13:10.697Z,69.92
2022-10-26T00:15:40.637Z,70.09
2022-10-26T00:18:07.040Z,70.73
2022-10-26T00:20:33.426Z,70.31
2022-10-26T00:22:59.828Z,69.88
2022-10-26T00:25:26.337Z,70.72
2022-10-26T00:27:53.147Z,70.93
2022-10-26T00:30:19.594Z,70.27
2022-10-26T00:32:45.989Z,70.51
2022-10-26T00:35:22.887Z,70.16
2022-10-26T00:37:55.899Z,70.93
2022-10-26T00:40:22.663Z,70.54
2022-10-26T00:42:49.359Z,70.51
2022-10-26T00:45:15.996Z,70.56
2022-10-26T00:47:48.721Z,70.31
2022-10-26T00:50:22.602Z,69.97
2022-10-26T00:52:51.496Z,70.18
2022-10-26T00:55:21.335Z,70.09
2022-10-26T00:57:51.767Z,70.08
2022-10-26T01:00:18.732Z,70.29
2022-10-26T01:02:48.006Z,70.19
2022-10-26T01:09:01.189Z,69.95
2022-10-26T01:11:28.790Z,69.92
2022-10-26T01:13:57.130Z,70.34
2022-10-26T01:16:46.095Z,69.99
2022-10-26T01:19:45.610Z,70.03
2022-10-26T01:22:11.956Z,70.13
2022-10-26T01:25:17.069Z,69.91
2022-10-26T01:27:47.898Z,70.02
2022-10-26T01:30:30.388Z,70.04
2022-10-26T01:33:17.559Z,70.13
2022-10-26T01:36:08.342Z,69.88
2022-10-26T01:38:57.587Z,69.75
2022-10-26T01:41:31.860Z,69.67
2022-10-26T01:44:28.749Z,69.63
2022-10-26T01:46:57.841Z,69.64
2022-10-26T01:49:28.977Z,69.62
2022-10-26T01:51:55.378Z,69.63
2022-10-26T01:54:21.802Z,69.97
2022-10-26T01:56:52.005Z,70.28
2022-10-26T01:59:47.913Z,70.34
2022-10-26T02:02:58.164Z,70.18
2022-10-26T02:05:36.306Z,70.38
2022-10-26T02:08:26.542Z,70.30
2022-10-26T02:11:31.543Z,70.36
2022-10-26T02:14:12.367Z,70.09
2022-10-26T02:16:58.394Z,70.26
2022-10-26T02:19:42.132Z,70.13
2022-10-26T02:22:34.147Z,70.23
2022-10-26T02:25:07.404Z,71.97
2022-10-26T02:27:41.451Z,73.02
2022-10-26T02:30:09.478Z,71.89
2022-10-26T02:32:40.406Z,71.86
2022-10-26T02:35:07.189Z,73.08
2022-10-26T02:37:37.100Z,72.66
2022-10-26T02:40:09.603Z,72.75
2022-10-26T02:42:37.514Z,72.09
2022-10-26T02:45:09.986Z,72.55
2022-10-26T02:47:36.566Z,72.16
2022-10-26T02:50:03.540Z,72.27
2022-10-26T02:52:39.025Z,72.16
2022-10-26T02:55:12.446Z,71.91
2022-10-26T02:57:42.212Z,71.50
2022-10-26T03:00:14.658Z,72.08
2022-10-26T03:02:48.579Z,72.21
2022-10-26T03:05:24.832Z,72.64
2022-10-26T03:07:51.662Z,72.77
2022-10-26T03:10:18.268Z,72.90
2022-10-26T03:12:45.048Z,72.77
2022-10-26T03:15:12.201Z,73.35
2022-10-26T03:17:38.596Z,72.75
2022-10-26T03:20:05.695Z,71.94
2022-10-26T03:22:32.117Z,71.84
2022-10-26T03:24:58.708Z,72.10
2022-10-26T03:27:26.882Z,72.56
2022-10-26T03:29:53.908Z,71.70
2022-10-26T03:32:20.346Z,71.45
2022-10-26T03:34:46.788Z,71.26
2022-10-26T03:37:13.271Z,71.47
2022-10-26T03:39:39.686Z,71.65
2022-10-26T03:42:06.093Z,71.50
2022-10-26T03:44:32.495Z,71.59
2022-10-26T03:46:58.913Z,71.50
2022-10-26T03:49:25.332Z,70.56
2022-10-26T03:51:51.771Z,70.68
2022-10-26T03:54:18.563Z,70.12
2022-10-26T03:56:45.031Z,70.51
2022-10-26T03:59:11.430Z,70.72
2022-10-26T04:01:38.913Z,70.82
2022-10-26T04:04:05.568Z,70.72
2022-10-26T04:06:32.017Z,70.34
2022-10-26T04:09:02.340Z,70.69
2022-10-26T04:11:29.537Z,71.93
2022-10-26T04:13:56.011Z,72.46
2022-10-26T04:16:22.387Z,72.92
2022-10-26T04:18:48.761Z,72.43
2022-10-26T04:21:15.166Z,72.48
2022-10-26T04:23:41.610Z,72.04
2022-10-26T04:26:08.076Z,72.33
2022-10-26T04:28:34.577Z,71.62
2022-10-26T04:31:01.110Z,71.59
2022-10-26T04:33:27.544Z,71.47
2022-10-26T04:35:59.148Z,71.99
2022-10-26T04:38:25.440Z,72.71
2022-10-26T04:40:52.119Z,72.54
2022-10-26T04:43:18.679Z,72.40
2022-10-26T04:45:45.101Z,72.09
2022-10-26T04:48:13.360Z,72.33
2022-10-26T04:50:40.489Z,71.85
2022-10-26T04:53:08.141Z,71.73
2022-10-26T04:55:35.314Z,71.54
2022-10-26T04:58:02.381Z,71.51
2022-10-26T05:00:30.950Z,71.30
2022-10-26T05:03:01.667Z,72.02
2022-10-26T05:05:29.120Z,72.14
2022-10-26T05:07:56.830Z,71.67
2022-10-26T05:10:23.994Z,72.28
2022-10-26T05:12:55.009Z,72.61
2022-10-26T05:15:22.232Z,72.21
2022-10-26T05:18:03.023Z,72.47
2022-10-26T05:20:31.381Z,71.51
2022-10-26T05:22:59.551Z,72.18
2022-10-26T05:25:26.280Z,71.08
2022-10-26T05:27:56.974Z,71.00
2022-10-26T05:30:23.414Z,71.18
2022-10-26T05:32:56.953Z,70.69
2022-10-26T05:35:24.077Z,70.37
2022-10-26T05:37:50.520Z,70.51
2022-10-26T05:40:17.660Z,70.60
2022-10-26T05:42:44.812Z,70.49
2022-10-26T05:45:12.282Z,70.62
2022-10-26T05:47:42.898Z,70.37
2022-10-26T05:50:10.748Z,70.22
2022-10-26T05:52:44.839Z,71.56
2022-10-26T05:55:14.322Z,71.44
2022-10-26T05:57:41.570Z,72.19
2022-10-26T06:00:23.239Z,71.86
2022-10-26T06:02:55.838Z,71.32
2022-10-26T06:05:26.238Z,71.50
2022-10-26T06:07:52.946Z,71.42
2022-10-26T06:10:19.713Z,70.98
2022-10-26T06:12:46.701Z,72.18
2022-10-26T06:15:19.118Z,71.44
2022-10-26T06:18:17.163Z,70.95
2022-10-26T06:21:23.721Z,71.65
2022-10-26T06:24:02.562Z,71.69
2022-10-26T06:26:53.460Z,72.05
2022-10-26T06:29:36.115Z,72.18
2022-10-26T06:32:02.799Z,72.21
2022-10-26T06:34:35.617Z,72.46
2022-10-26T06:37:03.079Z,73.20
2022-10-26T06:39:35.168Z,72.93
2022-10-26T06:42:02.035Z,72.34
2022-10-26T06:44:28.857Z,71.69
2022-10-26T06:47:09.918Z,71.87
2022-10-26T06:49:38.267Z,71.91
2022-10-26T06:52:07.489Z,71.46
2022-10-26T06:55:00.768Z,72.45
2022-10-26T06:57:35.481Z,72.59
2022-10-26T07:00:08.471Z,72.48
2022-10-26T07:02:35.065Z,71.86
2022-10-26T07:05:01.585Z,72.14
2022-10-26T07:07:31.072Z,72.24
2022-10-26T07:09:57.734Z,71.99
2022-10-26T07:12:24.170Z,72.70
2022-10-26T07:14:50.625Z,72.93
2022-10-26T07:17:17.068Z,72.46
2022-10-26T07:19:44.845Z,71.11
2022-10-26T07:22:11.494Z,71.10
2022-10-26T07:24:37.991Z,70.58
2022-10-26T07:27:04.434Z,70.47
2022-10-26T07:29:30.921Z,70.95
2022-10-26T07:31:57.486Z,71.40
2022-10-26T07:34:23.990Z,70.98
2022-10-26T07:36:51.527Z,71.51
2022-10-26T07:39:18.062Z,71.70
2022-10-26T07:41:45.589Z,73.33
2022-10-26T07:44:11.999Z,72.39
2022-10-26T07:46:38.400Z,72.16
2022-10-26T07:49:04.814Z,71.73
2022-10-26T07:51:31.238Z,71.80
2022-10-26T07:53:57.716Z,71.81
2022-10-26T07:56:24.177Z,72.05
2022-10-26T07:58:53.083Z,70.86
2022-10-26T08:01:20.129Z,70.65
2022-10-26T08:03:46.901Z,70.19
2022-10-26T08:06:13.738Z,69.65
2022-10-26T08:08:43.615Z,69.49
2022-10-26T08:11:13.440Z,69.33
2022-10-26T08:13:39.933Z,68.61
2022-10-26T08:16:06.886Z,69.63
2022-10-26T08:18:33.630Z,69.53
2022-10-26T08:21:12.281Z,67.94
2022-10-26T08:23:41.907Z,67.27
2022-10-26T08:26:11.355Z,67.12
2022-10-26T08:28:38.651Z,65.49
2022-10-26T08:31:05.807Z,64.36
2022-10-26T08:33:32.543Z,62.07
2022-10-26T08:36:00.859Z,60.09
2022-10-26T08:38:28.218Z,58.68
2022-10-26T08:40:57.485Z,56.53
2022-10-26T08:44:02.007Z,55.01
2022-10-26T08:46:35.055Z,54.01
2022-10-26T08:49:11.949Z,55.58
2022-10-26T08:51:42.526Z,60.70
2022-10-26T08:54:48.944Z,60.35
2022-10-26T08:57:22.441Z,58.25
2022-10-26T08:59:53.328Z,58.18
2022-10-26T09:02:20.927Z,57.26
2022-10-26T09:04:47.441Z,56.82
2022-10-26T09:07:55.802Z,57.35
2022-10-26T09:10:41.477Z,55.82
2022-10-26T09:13:36.910Z,54.49
2022-10-26T09:16:24.963Z,54.16
2022-10-26T09:19:23.580Z,53.59
2022-10-26T09:22:12.361Z,50.67
2022-10-26T09:25:02.864Z,49.48
2022-10-26T09:27:43.241Z,49.46
2022-10-26T09:30:15.467Z,48.65
2022-10-26T09:32:46.428Z,47.61
2022-10-26T09:35:23.063Z,46.97
2022-10-26T09:38:06.341Z,46.36
2022-10-26T09:40:47.773Z,46.26
2022-10-26T09:43:18.530Z,46.13
2022-10-26T09:45:49.090Z,44.27
2022-10-26T09:48:22.533Z,44.35
2022-10-26T09:50:51.313Z,45.96
2022-10-26T09:53:17.835Z,47.01
2022-10-26T09:55:47.418Z,46.48
2022-10-26T09:58:47.180Z,47.02
2022-10-26T10:01:30.330Z,48.23
2022-10-26T10:04:28.409Z,48.94
2022-10-26T10:07:00.607Z,47.04
2022-10-26T10:09:27.167Z,46.73
2022-10-26T10:11:57.916Z,48.24
2022-10-26T10:14:28.518Z,48.45
2022-10-26T10:16:56.408Z,48.33
2022-10-26T10:19:25.711Z,47.33
2022-10-26T10:21:56.635Z,46.41
2022-10-26T10:24:24.141Z,46.91
2022-10-26T10:26:59.855Z,47.24
2022-10-26T10:29:42.293Z,45.93
2022-10-26T10:32:15.426Z,46.35
2022-10-26T10:34:42.232Z,46.86
2022-10-26T10:37:25.297Z,47.01
2022-10-26T10:40:00.531Z,46.32
2022-10-26T10:42:37.074Z,48.38
2022-10-26T10:45:05.287Z,47.83
2022-10-26T10:47:33.572Z,48.20
2022-10-26T10:50:19.938Z,46.87
2022-10-26T10:52:47.310Z,46.88
2022-10-26T10:55:13.948Z,47.20
2022-10-26T10:58:05.139Z,47.58
2022-10-26T11:00:36.255Z,47.18
2022-10-26T11:03:19.200Z,45.38
2022-10-26T11:06:05.015Z,45.61
2022-10-26T11:08:37.206Z,45.55
2022-10-26T11:11:07.017Z,47.41
2022-10-26T11:13:51.549Z,45.37
2022-10-26T11:16:30.202Z,45.49
2022-10-26T11:19:04.077Z,45.69
2022-10-26T11:21:33.900Z,46.82
2022-10-26T11:24:11.385Z,44.40
2022-10-26T11:26:46.234Z,42.78
2022-10-26T11:29:39.861Z,42.16
2022-10-26T11:32:16.689Z,40.76
2022-10-26T11:34:50.491Z,40.26
2022-10-26T11:37:25.833Z,38.08
2022-10-26T11:40:36.678Z,38.01
2022-10-26T11:43:08.820Z,39.89
2022-10-26T11:45:39.734Z,37.91
2022-10-26T11:48:51.257Z,36.54
2022-10-26T11:51:24.202Z,36.83
2022-10-26T11:53:51.505Z,36.46
2022-10-26T11:56:38.463Z,34.07
2022-10-26T11:59:06.996Z,32.37
2022-10-26T12:01:34.362Z,35.50
2022-10-26T12:04:02.465Z,35.17
2022-10-26T12:06:32.701Z,34.72
2022-10-26T12:09:12.866Z,34.35
2022-10-26T12:12:02.841Z,34.11
2022-10-26T12:15:04.100Z,34.62
2022-10-26T12:17:35.063Z,35.08
2022-10-26T12:20:26.653Z,37.87
2022-10-26T12:22:53.338Z,41.94
2022-10-26T12:25:22.018Z,43.90
2022-10-26T12:30:19.664Z,44.00
2022-10-26T12:32:48.330Z,44.30
2022-10-26T12:35:40.167Z,40.86
2022-10-26T12:38:21.719Z,39.02
2022-10-26T12:40:48.994Z,37.84
2022-10-26T12:43:15.338Z,35.84
2022-10-26T12:45:43.616Z,34.33
2022-10-26T12:48:38.505Z,32.95
2022-10-26T12:51:27.225Z,34.36
2022-10-26T12:54:02.585Z,35.08
2022-10-26T12:56:50.703Z,38.83
2022-10-26T12:59:40.543Z,41.91
2022-10-26T13:02:25.283Z,43.70
2022-10-26T13:05:22.422Z,46.24
2022-10-26T13:07:49.548Z,47.16
2022-10-26T13:10:24.101Z,49.32
2022-10-26T13:12:57.023Z,49.36
2022-10-26T13:15:26.143Z,49.13
2022-10-26T13:18:14.264Z,49.02
2022-10-26T13:21:11.550Z,50.98
2022-10-26T13:23:40.708Z,51.29
2022-10-26T13:26:17.249Z,50.63
2022-10-26T13:29:01.537Z,50.99
2022-10-26T13:31:34.465Z,51.93
2022-10-26T13:34:04.423Z,50.79
2022-10-26T13:36:50.025Z,51.42
2022-10-26T13:39:26.470Z,50.42
2022-10-26T13:41:55.566Z,50.13
2022-10-26T13:44:39.571Z,50.38
2022-10-26T13:47:21.952Z,49.97
2022-10-26T13:49:52.966Z,49.90
2022-10-26T13:52:28.971Z,49.64
2022-10-26T13:54:59.880Z,49.64
2022-10-26T13:57:40.528Z,50.09
2022-10-26T14:00:19.248Z,49.92
2022-10-26T14:02:45.790Z,50.45
2022-10-26T14:05:16.866Z,50.56
2022-10-26T14:07:54.045Z,50.30
2022-10-26T14:10:24.884Z,50.00
2022-10-26T14:12:52.005Z,50.18
2022-10-26T14:15:30.819Z,50.59
2022-10-26T14:17:59.650Z,50.55
2022-10-26T14:20:27.866Z,50.24
2022-10-26T14:22:54.421Z,50.12
2022-10-26T14:25:36.155Z,50.78
2022-10-26T14:28:29.743Z,50.49
2022-10-26T14:31:21.046Z,51.14
2022-10-26T14:33:47.605Z,51.88
2022-10-26T14:36:15.643Z,51.70
2022-10-26T14:38:46.443Z,51.49
2022-10-26T14:41:15.978Z,51.60
2022-10-26T14:43:43.900Z,51.77
2022-10-26T14:46:18.553Z,51.36
2022-10-26T14:48:54.772Z,51.62
2022-10-26T14:51:26.655Z,52.12
2022-10-26T14:53:56.396Z,52.94
2022-10-26T14:56:31.354Z,52.44
2022-10-26T14:58:58.603Z,52.23
2022-10-26T15:01:30.318Z,51.84
2022-10-26T15:04:06.258Z,52.18
2022-10-26T15:06:42.074Z,52.19
2022-10-26T15:09:32.888Z,52.27
2022-10-26T15:11:59.956Z,52.49
2022-10-26T15:14:26.389Z,53.07
2022-10-26T15:16:56.703Z,52.76
2022-10-26T15:19:24.044Z,52.41
2022-10-26T15:21:52.408Z,52.34
2022-10-26T15:24:18.976Z,52.74
2022-10-26T15:26:45.428Z,53.02
2022-10-26T15:29:42.489Z,53.14
2022-10-26T15:32:31.821Z,54.06
2022-10-26T15:35:19.842Z,54.15
2022-10-26T15:37:51.445Z,54.36
2022-10-26T15:40:18.489Z,54.33
2022-10-26T15:42:49.114Z,54.39
2022-10-26T15:45:20.988Z,54.85
2022-10-26T15:47:47.607Z,54.60
2022-10-26T15:50:19.814Z,55.05
2022-10-26T15:52:49.151Z,55.34
2022-10-26T15:55:17.430Z,55.86
2022-10-26T15:57:43.973Z,56.42
2022-10-26T16:00:16.757Z,56.06
2022-10-26T16:02:45.165Z,55.76
2022-10-26T16:05:13.893Z,56.20
2022-10-26T16:07:43.265Z,56.39
2022-10-26T16:10:16.720Z,57.30
2022-10-26T16:12:43.175Z,56.84
2022-10-26T16:15:16.562Z,56.75
2022-10-26T16:17:43.028Z,57.64
2022-10-26T16:20:15.205Z,57.42
2022-10-26T16:22:46.894Z,57.59
2022-10-26T16:25:13.875Z,58.18
2022-10-26T16:27:40.727Z,57.75
2022-10-26T16:30:07.888Z,57.49
2022-10-26T16:32:34.485Z,58.24
2022-10-26T16:35:00.972Z,59.27
2022-10-26T16:37:30.212Z,59.10
2022-10-26T16:39:57.086Z,58.69
2022-10-26T16:42:23.672Z,58.64
2022-10-26T16:44:50.167Z,59.06
2022-10-26T16:47:16.733Z,59.40
2022-10-26T16:49:43.257Z,59.75
2022-10-26T16:52:10.569Z,60.24
2022-10-26T16:54:37.024Z,60.27
2022-10-26T16:57:03.820Z,60.08
2022-10-26T16:59:30.587Z,60.74
2022-10-26T17:01:57.086Z,61.01
2022-10-26T17:04:23.958Z,61.28
2022-10-26T17:06:50.676Z,60.71
2022-10-26T17:09:17.100Z,61.38
2022-10-26T17:11:43.551Z,60.75
2022-10-26T17:14:10.042Z,60.65
2022-10-26T17:16:36.530Z,60.51
2022-10-26T17:19:03.153Z,60.57
2022-10-26T17:21:32.351Z,60.67
2022-10-26T17:23:58.967Z,61.03
2022-10-26T17:26:25.686Z,61.18
2022-10-26T17:28:53.597Z,61.66
2022-10-26T17:31:20.335Z,61.78
2022-10-26T17:33:50.872Z,61.73
2022-10-26T17:36:22.519Z,61.36
2022-10-26T17:38:51.441Z,62.12
2022-10-26T17:41:20.065Z,62.57
2022-10-26T17:43:48.324Z,62.09
2022-10-26T17:46:17.860Z,61.84
2022-10-26T17:48:44.480Z,62.22
2022-10-26T17:51:17.328Z,62.40
2022-10-26T17:53:47.430Z,62.15
2022-10-26T17:56:22.178Z,62.04
2022-10-26T17:59:00.231Z,62.33
2022-10-26T18:01:28.288Z,62.11
2022-10-26T18:03:55.685Z,62.73
2022-10-26T18:06:22.569Z,63.28
2022-10-26T18:08:49.065Z,62.98
2022-10-26T18:11:22.508Z,62.81
2022-10-26T18:13:53.638Z,63.10
2022-10-26T18:16:22.144Z,62.09
2022-10-26T18:18:52.066Z,62.55
2022-10-26T18:21:20.376Z,62.94
2022-10-26T18:23:47.254Z,63.14
2022-10-26T18:26:19.559Z,62.69
2022-10-26T18:28:46.332Z,63.06
2022-10-26T18:31:15.858Z,62.85
2022-10-26T18:33:42.649Z,63.17
2022-10-26T18:36:12.008Z,63.20
2022-10-26T18:38:39.954Z,63.53
2022-10-26T18:41:07.926Z,63.30
2022-10-26T18:43:34.388Z,63.33
2022-10-26T18:46:06.135Z,63.15
2022-10-26T18:48:32.593Z,62.84
2022-10-26T18:51:06.474Z,62.88
2022-10-26T18:53:34.718Z,62.89
2022-10-26T18:56:03.258Z,62.91
2022-10-26T18:58:35.020Z,62.86
2022-10-26T19:01:07.062Z,63.62
2022-10-26T19:03:33.974Z,63.30
2022-10-26T19:06:22.247Z,63.14
2022-10-26T19:08:48.719Z,63.29
2022-10-26T19:11:17.781Z,62.87
2022-10-26T19:13:44.536Z,62.66
2022-10-26T19:16:17.230Z,62.20
2022-10-26T19:18:55.995Z,63.45
2022-10-26T19:21:22.816Z,62.84
2022-10-26T19:23:54.509Z,63.28
2022-10-26T19:26:22.220Z,64.00
2022-10-26T19:28:57.525Z,64.19
2022-10-26T19:31:27.279Z,64.48
2022-10-26T19:33:56.406Z,64.30
2022-10-26T19:36:22.919Z,64.14
2022-10-26T19:38:49.490Z,64.30
2022-10-26T19:41:16.882Z,64.07
2022-10-26T19:43:44.755Z,63.95
2022-10-26T19:46:13.860Z,64.30
2022-10-26T19:48:41.216Z,64.40
2022-10-26T19:51:08.564Z,64.09
2022-10-26T19:53:35.650Z,64.27
2022-10-26T19:56:02.553Z,64.46
2022-10-26T19:58:31.261Z,64.54
2022-10-26T20:01:02.671Z,64.94
2022-10-26T20:03:29.864Z,65.24
2022-10-26T20:05:57.716Z,65.98
2022-10-26T20:08:25.027Z,65.84
2022-10-26T20:10:57.127Z,65.83
2022-10-26T20:13:24.344Z,65.85
2022-10-26T20:15:51.826Z,65.85
2022-10-26T20:18:18.838Z,65.60
2022-10-26T20:20:45.585Z,66.46
2022-10-26T20:23:12.417Z,66.70
2022-10-26T20:25:45.113Z,66.88
2022-10-26T20:28:11.886Z,66.08
2022-10-26T20:30:38.430Z,66.25
2022-10-26T20:33:05.271Z,66.42
2022-10-26T20:35:32.460Z,66.46
2022-10-26T20:37:59.450Z,66.43
2022-10-26T20:40:27.668Z,66.02
2022-10-26T20:42:54.675Z,66.08
2022-10-26T20:45:31.652Z,66.14
2022-10-26T20:48:00.082Z,66.02
2022-10-26T20:50:29.374Z,65.91
2022-10-26T20:53:10.732Z,66.01
2022-10-26T20:55:45.483Z,65.78
2022-10-26T20:58:21.394Z,65.65
2022-10-26T21:00:55.721Z,65.34
2022-10-26T21:03:22.176Z,65.81
2022-10-26T21:05:48.600Z,65.84
2022-10-26T21:08:15.086Z,65.77
2022-10-26T21:10:41.587Z,66.13
2022-10-26T21:13:08.031Z,66.24
2022-10-26T21:15:35.827Z,65.92
2022-10-26T21:18:02.895Z,66.49
2022-10-26T21:20:29.654Z,66.46
2022-10-26T21:22:56.082Z,66.81
2022-10-26T21:25:22.722Z,66.79
2022-10-26T21:27:53.906Z,66.94
2022-10-26T21:30:20.436Z,66.66
2022-10-26T21:32:46.935Z,66.65
2022-10-26T21:35:13.455Z,66.84
2022-10-26T21:37:39.857Z,67.22
2022-10-26T21:40:06.950Z,67.96
2022-10-26T21:42:33.370Z,67.42
2022-10-26T21:44:59.783Z,67.67
2022-10-26T21:47:26.324Z,68.25
2022-10-26T21:49:52.780Z,68.10
2022-10-26T21:52:19.315Z,67.25
2022-10-26T21:54:45.772Z,67.00
2022-10-26T21:57:12.197Z,67.37
2022-10-26T21:59:38.762Z,67.18
2022-10-26T22:02:05.410Z,67.17
2022-10-26T22:04:31.988Z,67.15
2022-10-26T22:06:58.448Z,66.95
2022-10-26T22:09:24.911Z,66.96
2022-10-26T22:11:51.340Z,66.96
2022-10-26T22:14:18.282Z,67.08
2022-10-26T22:16:44.740Z,67.34
2022-10-26T22:19:12.124Z,67.58
2022-10-26T22:21:41.044Z,67.29
2022-10-26T22:24:08.058Z,67.46
2022-10-26T22:26:36.250Z,67.39
2022-10-26T22:29:03.074Z,67.64
2022-10-26T22:31:32.249Z,67.67
2022-10-26T22:34:07.362Z,67.51
2022-10-26T22:36:34.981Z,67.65
2022-10-26T22:39:01.558Z,67.52
2022-10-26T22:41:28.093Z,67.37
2022-10-26T22:43:54.590Z,67.90
2022-10-26T22:46:23.878Z,67.84
2022-10-26T22:48:58.153Z,68.12
2022-10-26T22:51:26.967Z,67.97
2022-10-26T22:53:55.074Z,68.10
2022-10-26T22:56:23.352Z,67.73
2022-10-26T22:58:51.975Z,67.89
2022-10-26T23:01:27.642Z,68.08
2022-10-26T23:03:57.489Z,67.87
2022-10-26T23:06:25.783Z,68.08
2022-10-26T23:08:52.172Z,67.93
2022-10-26T23:11:20.603Z,68.00
2022-10-26T23:13:47.533Z,67.96
2022-10-26T23:16:17.861Z,68.30
2022-10-26T23:18:44.406Z,68.29
2022-10-26T23:21:12.679Z,68.79
2022-10-26T23:23:39.639Z,68.52
2022-10-26T23:26:12.194Z,68.68
2022-10-26T23:28:39.482Z,68.63
2022-10-26T23:31:06.557Z,68.07
2022-10-26T23:33:33.619Z,68.02
2022-10-26T23:36:01.185Z,67.89
2022-10-26T23:38:27.723Z,68.19
2022-10-26T23:40:58.893Z,68.25
2022-10-26T23:43:26.867Z,68.32
2022-10-26T23:45:56.594Z,68.89
2022-10-26T23:48:23.221Z,69.02
2022-10-26T23:50:50.946Z,68.84
2022-10-26T23:53:21.449Z,69.39
2022-10-26T23:55:48.305Z,68.65
2022-10-26T23:58:15.529Z,68.70
